Time;durP1;ratioP1;P1;durP2;ratioP2;P2;SDS_P1;SDS_P2;PMS_P1;PMS_P2;Temp;Humidity;BMP_temperature;BMP_pressure;BME280_temperature;BME280_humidity;BME280_pressure;Samples;Min_cycle;Max_cycle;Signal;HPM_P1;HPM_P2
2021/09/26 00:01:47;;;;;;;11.88;8.60;;;15.10;99.90;;;;;;5051758;28;20020;-84
2021/09/26 00:04:12;;;;;;;9.43;7.72;;;15.00;99.90;;;;;;5051694;28;20013;-83
2021/09/26 00:06:38;;;;;;;11.02;9.30;;;15.00;99.90;;;;;;5051455;28;20028;-84
2021/09/26 00:09:04;;;;;;;11.55;8.55;;;15.10;99.90;;;;;;5051460;28;20021;-84
2021/09/26 00:11:30;;;;;;;11.25;8.55;;;15.00;99.90;;;;;;5053501;28;20025;-84
2021/09/26 00:13:56;;;;;;;11.30;8.30;;;15.00;99.90;;;;;;5075029;28;20095;-84
2021/09/26 00:16:22;;;;;;;12.25;9.38;;;15.00;99.90;;;;;;5075041;28;20165;-85
2021/09/26 00:18:49;;;;;;;10.85;8.55;;;15.00;99.90;;;;;;5074950;28;20032;-84
2021/09/26 00:21:15;;;;;;;13.02;9.15;;;14.90;99.90;;;;;;5074844;28;20024;-83
2021/09/26 00:23:41;;;;;;;11.50;8.75;;;14.90;99.90;;;;;;5093294;28;20145;-83
2021/09/26 00:26:06;;;;;;;11.25;8.20;;;14.90;99.90;;;;;;5074675;28;20107;-84
2021/09/26 00:28:35;;;;;;;10.57;8.75;;;14.80;99.90;;;;;;5057952;28;20494;-84
2021/09/26 00:31:01;;;;;;;11.82;9.27;;;14.90;99.90;;;;;;5092930;28;20075;-84
2021/09/26 00:33:27;;;;;;;11.35;8.63;;;14.80;99.90;;;;;;5074792;28;20024;-84
2021/09/26 00:35:53;;;;;;;13.10;9.10;;;14.80;99.90;;;;;;5092610;28;20103;-84
2021/09/26 00:38:19;;;;;;;11.57;8.80;;;14.80;99.90;;;;;;5074760;28;20016;-84
2021/09/26 00:40:47;;;;;;;10.35;8.35;;;14.80;99.90;;;;;;5092842;28;20036;-84
2021/09/26 00:43:13;;;;;;;12.50;9.48;;;14.70;99.90;;;;;;5074851;28;20123;-84
2021/09/26 00:45:38;;;;;;;11.93;8.68;;;14.70;99.90;;;;;;5092544;28;20051;-84
2021/09/26 00:48:04;;;;;;;11.90;8.95;;;14.70;99.90;;;;;;5077728;28;20490;-84
2021/09/26 00:50:31;;;;;;;12.90;8.93;;;14.70;99.90;;;;;;5078433;28;20026;-83
2021/09/26 00:52:57;;;;;;;11.73;8.80;;;14.70;99.90;;;;;;5096531;28;20024;-84
2021/09/26 00:55:23;;;;;;;11.70;8.65;;;14.70;99.90;;;;;;5078300;28;20024;-84
2021/09/26 00:57:48;;;;;;;12.00;9.27;;;14.70;99.90;;;;;;5077876;28;20420;-83
2021/09/26 01:00:17;;;;;;;13.20;9.35;;;14.70;99.90;;;;;;5061605;28;20353;-84
2021/09/26 01:02:43;;;;;;;11.05;8.48;;;14.70;99.90;;;;;;5078186;28;20111;-84
2021/09/26 01:05:12;;;;;;;12.10;8.80;;;14.60;99.90;;;;;;5061325;28;20472;-84
2021/09/26 01:07:56;;;;;;;11.68;9.02;;;14.60;99.90;;;;;;5077879;28;20671;-84
2021/09/26 01:10:34;;;;;;;12.10;8.52;;;14.60;99.90;;;;;;5077797;28;20032;-84
2021/09/26 01:13:42;;;;;;;12.43;9.15;;;14.60;99.90;;;;;;5077747;28;20047;-83
2021/09/26 01:16:28;;;;;;;12.75;9.13;;;14.60;99.90;;;;;;5066763;28;20560;-84
2021/09/26 01:19:21;;;;;;;12.48;8.80;;;14.50;99.90;;;;;;5077862;28;20069;-84
2021/09/26 01:21:53;;;;;;;13.18;8.73;;;14.50;99.90;;;;;;5059014;28;20465;-83
2021/09/26 01:24:50;;;;;;;11.55;8.02;;;14.40;99.90;;;;;;5077964;28;20020;-84
2021/09/26 01:27:24;;;;;;;12.65;8.27;;;14.40;99.90;;;;;;5077668;28;20130;-84
2021/09/26 01:30:08;;;;;;;12.73;8.55;;;14.40;99.90;;;;;;5077615;28;20020;-84
2021/09/26 01:32:34;;;;;;;11.07;8.50;;;14.40;99.90;;;;;;5077761;28;20115;-84
2021/09/26 01:35:05;;;;;;;11.32;8.55;;;14.40;99.90;;;;;;5077818;28;20031;-84
2021/09/26 01:37:39;;;;;;;12.13;8.60;;;14.30;99.90;;;;;;5095185;28;20016;-84
2021/09/26 01:40:09;;;;;;;11.70;9.05;;;14.30;99.90;;;;;;5077080;28;20064;-84
2021/09/26 01:42:46;;;;;;;10.45;8.20;;;14.30;99.90;;;;;;5077403;28;20024;-83
2021/09/26 01:45:14;;;;;;;11.95;8.35;;;14.30;99.90;;;;;;5077482;28;20028;-83
2021/09/26 01:47:43;;;;;;;10.95;8.57;;;14.30;99.90;;;;;;5060789;28;20024;-84
2021/09/26 01:50:11;;;;;;;12.88;9.50;;;14.30;99.90;;;;;;5077289;28;20152;-84
2021/09/26 01:52:38;;;;;;;11.82;8.10;;;14.30;99.90;;;;;;5077348;28;20515;-83
2021/09/26 01:55:08;;;;;;;12.07;9.13;;;14.30;99.90;;;;;;5077224;28;20103;-83
2021/09/26 01:57:34;;;;;;;12.40;9.32;;;14.30;99.90;;;;;;5076584;28;20137;-83
2021/09/26 02:00:04;;;;;;;12.35;9.13;;;14.20;99.90;;;;;;5077073;28;20441;-84
2021/09/26 02:02:32;;;;;;;13.00;9.20;;;14.30;99.90;;;;;;5077055;28;20020;-84
2021/09/26 02:05:03;;;;;;;14.85;10.20;;;14.20;99.90;;;;;;5076566;28;20020;-84
2021/09/26 02:07:31;;;;;;;12.73;9.45;;;14.20;99.90;;;;;;5076898;28;20024;-84
2021/09/26 02:09:58;;;;;;;11.68;9.23;;;14.20;99.90;;;;;;5076798;28;20074;-84
2021/09/26 02:12:27;;;;;;;13.27;10.20;;;14.30;99.90;;;;;;5076381;28;20059;-84
2021/09/26 02:14:54;;;;;;;14.35;10.18;;;14.30;99.90;;;;;;5095012;28;20020;-85
2021/09/26 02:17:22;;;;;;;13.68;9.70;;;14.30;99.90;;;;;;5076717;28;20468;-84
2021/09/26 02:19:50;;;;;;;14.15;10.07;;;14.20;99.90;;;;;;5076541;28;20531;-83
2021/09/26 02:22:17;;;;;;;13.02;9.55;;;14.30;99.90;;;;;;5056549;28;20032;-84
2021/09/26 02:24:43;;;;;;;13.02;9.38;;;14.30;99.90;;;;;;5076655;28;20034;-84
2021/09/26 02:27:09;;;;;;;12.35;9.43;;;14.20;99.90;;;;;;5076318;28;20020;-84
2021/09/26 02:29:36;;;;;;;11.85;9.10;;;14.20;99.90;;;;;;5076418;28;20020;-84
2021/09/26 02:32:02;;;;;;;13.82;9.40;;;14.20;99.90;;;;;;5076261;28;20058;-85
2021/09/26 02:34:28;;;;;;;13.32;9.85;;;14.20;99.90;;;;;;5076617;28;20115;-85
2021/09/26 02:36:54;;;;;;;11.27;8.98;;;14.10;99.90;;;;;;5076239;28;20512;-84
2021/09/26 02:39:22;;;;;;;12.02;9.30;;;14.10;99.90;;;;;;5076052;28;20177;-85
2021/09/26 02:42:05;;;;;;;14.25;10.05;;;14.10;99.90;;;;;;5076058;28;20089;-84
2021/09/26 02:44:49;;;;;;;13.02;9.15;;;14.10;99.90;;;;;;5076392;28;20023;-84
2021/09/26 02:47:19;;;;;;;11.27;8.55;;;14.00;99.90;;;;;;5075803;28;20123;-84
2021/09/26 02:49:45;;;;;;;11.02;8.52;;;14.00;99.90;;;;;;5076167;28;20027;-84
2021/09/26 02:52:12;;;;;;;11.95;8.98;;;14.00;99.90;;;;;;5093919;28;20020;-84
2021/09/26 02:54:42;;;;;;;13.45;9.75;;;14.00;99.90;;;;;;5076171;28;20029;-85
2021/09/26 02:57:09;;;;;;;12.95;9.23;;;14.00;99.90;;;;;;5076290;28;20024;-84
2021/09/26 02:59:36;;;;;;;13.85;9.55;;;14.00;99.90;;;;;;5075664;28;20032;-85
2021/09/26 03:02:02;;;;;;;12.45;8.68;;;14.00;99.90;;;;;;5075910;28;20097;-84
2021/09/26 03:04:28;;;;;;;12.52;9.30;;;14.00;99.90;;;;;;5075977;28;20028;-85
2021/09/26 03:06:54;;;;;;;13.48;9.15;;;14.00;99.90;;;;;;5075882;28;20024;-84
2021/09/26 03:09:20;;;;;;;14.02;9.52;;;14.00;99.90;;;;;;5075203;28;20024;-84
2021/09/26 03:11:46;;;;;;;13.00;9.55;;;14.00;99.90;;;;;;5075235;28;20082;-84
2021/09/26 03:14:12;;;;;;;12.13;9.02;;;14.00;99.90;;;;;;5075568;28;20024;-84
2021/09/26 03:16:38;;;;;;;11.82;9.05;;;14.00;99.90;;;;;;5075540;28;20024;-84
2021/09/26 03:19:04;;;;;;;12.80;9.10;;;14.10;99.90;;;;;;5075471;28;20023;-84
2021/09/26 03:21:30;;;;;;;14.32;9.90;;;14.10;99.90;;;;;;5075356;28;20051;-84
2021/09/26 03:23:56;;;;;;;11.90;9.00;;;14.10;99.90;;;;;;5075614;28;20379;-84
2021/09/26 03:26:23;;;;;;;12.75;9.02;;;14.20;99.90;;;;;;5075622;28;20047;-84
2021/09/26 03:28:49;;;;;;;13.52;9.20;;;14.20;99.90;;;;;;5075225;28;20024;-85
2021/09/26 03:31:15;;;;;;;14.07;8.95;;;14.20;99.90;;;;;;5075396;28;20127;-85
2021/09/26 03:33:40;;;;;;;13.82;10.00;;;14.20;99.90;;;;;;5074743;28;20048;-84
2021/09/26 03:36:06;;;;;;;14.52;9.55;;;14.30;99.90;;;;;;5075306;28;20518;-84
2021/09/26 03:38:32;;;;;;;13.20;9.40;;;14.30;99.90;;;;;;5075293;28;20080;-84
2021/09/26 03:40:57;;;;;;;13.30;9.30;;;14.30;99.90;;;;;;5074835;28;20032;-84
2021/09/26 03:43:23;;;;;;;13.02;9.13;;;14.30;99.90;;;;;;5056255;28;20033;-84
2021/09/26 03:45:51;;;;;;;12.77;9.05;;;14.30;99.90;;;;;;5075833;28;20029;-84
2021/09/26 03:48:22;;;;;;;12.75;9.40;;;14.30;99.90;;;;;;5093007;28;20099;-84
2021/09/26 03:50:49;;;;;;;12.45;9.30;;;14.40;99.90;;;;;;5075414;28;20085;-84
2021/09/26 03:53:16;;;;;;;14.18;9.32;;;14.40;99.90;;;;;;5075149;28;20480;-85
2021/09/26 03:55:42;;;;;;;14.00;10.43;;;14.40;99.90;;;;;;5075508;28;20020;-84
2021/09/26 03:58:08;;;;;;;14.38;9.27;;;14.40;99.90;;;;;;5093314;28;20024;-84
2021/09/26 04:00:34;;;;;;;11.68;8.80;;;14.40;99.90;;;;;;5075019;28;20472;-85
2021/09/26 04:03:00;;;;;;;14.48;9.60;;;14.40;99.90;;;;;;5075320;28;20028;-84
2021/09/26 04:05:26;;;;;;;13.35;9.30;;;14.50;99.90;;;;;;5074975;28;20020;-84
2021/09/26 04:07:52;;;;;;;13.13;9.23;;;14.50;99.90;;;;;;5075118;28;20027;-84
2021/09/26 04:10:17;;;;;;;11.85;7.90;;;14.50;99.90;;;;;;5074698;28;20064;-84
2021/09/26 04:12:46;;;;;;;12.35;9.50;;;14.50;99.90;;;;;;5074716;28;20067;-83
2021/09/26 04:15:13;;;;;;;13.43;9.25;;;14.50;99.90;;;;;;5074874;28;20031;-84
2021/09/26 04:17:39;;;;;;;11.85;8.77;;;14.50;99.90;;;;;;5074839;28;20031;-84
2021/09/26 04:20:08;;;;;;;11.73;8.75;;;14.50;99.90;;;;;;5075045;28;20023;-83
2021/09/26 04:22:34;;;;;;;13.23;9.18;;;14.50;99.90;;;;;;5077629;28;20035;-84
2021/09/26 04:25:00;;;;;;;12.02;9.07;;;14.50;99.90;;;;;;5078540;28;20028;-84
2021/09/26 04:27:26;;;;;;;11.95;9.65;;;14.60;99.90;;;;;;5078897;28;20016;-83
2021/09/26 04:29:53;;;;;;;13.55;10.15;;;14.60;99.90;;;;;;5078771;28;20494;-85
2021/09/26 04:32:20;;;;;;;13.23;9.02;;;14.60;99.90;;;;;;5078787;28;20406;-84
2021/09/26 04:34:46;;;;;;;12.32;9.55;;;14.60;99.90;;;;;;5078767;28;20085;-84
2021/09/26 04:37:12;;;;;;;12.15;9.35;;;14.60;99.90;;;;;;5097009;28;20024;-84
2021/09/26 04:39:38;;;;;;;11.48;9.05;;;14.60;99.90;;;;;;5078419;28;20028;-84
2021/09/26 04:42:05;;;;;;;10.50;8.70;;;14.60;99.90;;;;;;5078443;28;20020;-84
2021/09/26 04:44:31;;;;;;;12.23;8.68;;;14.60;99.90;;;;;;5078925;28;20042;-84
2021/09/26 04:46:56;;;;;;;11.98;8.75;;;14.70;99.90;;;;;;5078586;28;20103;-84
2021/09/26 04:49:27;;;;;;;11.15;8.35;;;14.70;99.90;;;;;;5078367;28;20016;-85
2021/09/26 04:51:54;;;;;;;10.52;8.35;;;14.70;99.90;;;;;;5096309;28;20520;-85
2021/09/26 04:54:21;;;;;;;11.80;8.38;;;14.80;99.90;;;;;;5078196;28;20048;-85
2021/09/26 04:56:46;;;;;;;10.75;8.93;;;14.80;99.90;;;;;;5057135;28;20480;-84
2021/09/26 04:59:12;;;;;;;11.93;8.77;;;14.80;99.90;;;;;;5074176;28;20016;-84
2021/09/26 05:01:37;;;;;;;13.40;10.23;;;14.80;99.90;;;;;;5078164;28;20028;-84
2021/09/26 05:04:06;;;;;;;11.77;9.30;;;14.90;99.90;;;;;;5078213;28;20463;-85
2021/09/26 05:06:31;;;;;;;12.63;9.20;;;14.90;99.90;;;;;;5096551;28;20024;-84
2021/09/26 05:08:57;;;;;;;12.32;9.85;;;14.90;99.90;;;;;;5078141;28;20353;-84
2021/09/26 05:11:23;;;;;;;11.13;8.93;;;14.90;99.90;;;;;;5077440;28;20040;-84
2021/09/26 05:13:49;;;;;;;11.40;8.43;;;14.90;99.90;;;;;;5078219;28;20035;-84
2021/09/26 05:16:14;;;;;;;11.90;9.05;;;14.90;99.90;;;;;;5095738;28;20047;-84
2021/09/26 05:18:40;;;;;;;14.88;9.02;;;15.00;99.90;;;;;;5077509;28;20028;-85
2021/09/26 05:21:07;;;;;;;11.00;7.88;;;15.00;99.90;;;;;;5077330;28;20131;-84
2021/09/26 05:23:34;;;;;;;11.50;8.73;;;15.00;99.90;;;;;;5096265;28;20099;-84
2021/09/26 05:26:00;;;;;;;12.13;8.80;;;15.10;99.90;;;;;;5095658;28;20057;-84
2021/09/26 05:28:26;;;;;;;11.77;8.90;;;15.10;99.90;;;;;;5077198;28;20028;-84
2021/09/26 05:30:52;;;;;;;12.20;8.07;;;15.10;99.90;;;;;;5095733;28;20024;-85
2021/09/26 05:33:17;;;;;;;11.90;8.95;;;15.10;99.90;;;;;;5077054;28;20020;-84
2021/09/26 05:35:43;;;;;;;15.82;8.32;;;15.10;99.90;;;;;;5077640;28;20353;-84
2021/09/26 05:38:09;;;;;;;12.85;8.93;;;15.10;99.90;;;;;;5077507;28;20027;-84
2021/09/26 05:40:34;;;;;;;12.95;8.98;;;15.20;99.90;;;;;;5077177;28;20035;-84
2021/09/26 05:43:00;;;;;;;11.45;9.27;;;15.20;99.90;;;;;;5077239;28;20036;-84
2021/09/26 05:45:26;;;;;;;10.57;8.63;;;15.20;99.90;;;;;;5077256;28;20020;-85
2021/09/26 05:47:52;;;;;;;12.50;9.57;;;15.20;99.90;;;;;;5077196;28;20016;-85
2021/09/26 05:50:22;;;;;;;15.32;9.95;;;15.20;99.90;;;;;;5077463;28;20027;-89
2021/09/26 05:52:48;;;;;;;11.73;8.85;;;15.20;99.90;;;;;;5077528;28;20115;-90
2021/09/26 05:55:14;;;;;;;11.00;8.60;;;15.10;99.90;;;;;;5074530;28;20395;-90
2021/09/26 05:57:40;;;;;;;12.95;9.05;;;15.10;99.90;;;;;;5074123;28;20124;-90
2021/09/26 06:00:07;;;;;;;11.35;8.93;;;15.00;99.90;;;;;;5071977;28;20422;-89
2021/09/26 06:02:33;;;;;;;11.02;8.70;;;15.00;99.90;;;;;;5074793;28;20510;-89
2021/09/26 06:04:59;;;;;;;12.00;8.45;;;15.00;99.90;;;;;;5074369;28;20020;-89
2021/09/26 06:07:25;;;;;;;11.88;8.35;;;15.00;99.90;;;;;;5074424;28;20020;-90
2021/09/26 06:09:51;;;;;;;12.05;8.70;;;15.00;99.90;;;;;;5092571;28;20032;-89
2021/09/26 06:12:17;;;;;;;11.00;8.40;;;15.00;99.90;;;;;;5092049;28;20044;-89
2021/09/26 06:14:43;;;;;;;12.18;9.05;;;15.10;99.90;;;;;;5074463;28;20016;-89
2021/09/26 06:17:08;;;;;;;12.18;8.73;;;15.10;99.90;;;;;;5092522;28;20093;-89
2021/09/26 06:19:34;;;;;;;12.43;8.90;;;15.10;99.90;;;;;;5073853;28;20111;-89
2021/09/26 06:22:00;;;;;;;11.02;9.18;;;15.10;99.90;;;;;;5074279;28;20062;-88
2021/09/26 06:24:26;;;;;;;11.57;8.82;;;15.10;99.90;;;;;;5071314;28;20035;-88
2021/09/26 06:26:52;;;;;;;11.38;8.25;;;15.20;99.90;;;;;;5073962;28;20020;-88
2021/09/26 06:29:18;;;;;;;10.18;8.38;;;15.20;99.90;;;;;;5074241;28;20050;-88
2021/09/26 06:31:48;;;;;;;11.60;8.63;;;15.20;99.90;;;;;;5073855;28;20576;-89
2021/09/26 06:34:14;;;;;;;11.10;8.93;;;15.30;99.90;;;;;;5074096;28;20052;-89
2021/09/26 06:36:39;;;;;;;10.82;8.90;;;15.20;99.90;;;;;;5074209;28;20031;-89
2021/09/26 06:39:05;;;;;;;11.18;8.55;;;15.30;99.90;;;;;;5074754;28;20411;-89
2021/09/26 06:41:31;;;;;;;11.52;8.80;;;15.30;99.90;;;;;;5091961;28;20115;-88
2021/09/26 06:43:56;;;;;;;11.20;8.68;;;15.30;99.90;;;;;;5072102;28;20020;-89
2021/09/26 06:46:22;;;;;;;12.18;8.65;;;15.40;99.90;;;;;;5073499;28;20039;-88
2021/09/26 06:48:48;;;;;;;10.43;8.98;;;15.40;99.90;;;;;;5073772;28;20024;-88
2021/09/26 06:51:14;;;;;;;12.85;9.32;;;15.40;99.90;;;;;;5091948;28;20425;-89
2021/09/26 06:53:41;;;;;;;10.95;8.40;;;15.40;99.90;;;;;;5073148;28;20020;-88
2021/09/26 06:56:07;;;;;;;13.90;9.35;;;15.50;99.90;;;;;;5073428;28;20172;-89
2021/09/26 06:58:34;;;;;;;12.68;9.77;;;15.50;99.90;;;;;;5073147;28;20038;-89
2021/09/26 07:01:00;;;;;;;13.77;9.75;;;15.60;99.90;;;;;;5090464;28;20036;-89
2021/09/26 07:03:27;;;;;;;11.50;9.27;;;15.60;99.90;;;;;;5091844;28;20464;-89
2021/09/26 07:05:53;;;;;;;11.15;9.27;;;15.70;99.90;;;;;;5057066;28;20031;-88
2021/09/26 07:08:19;;;;;;;11.35;8.40;;;15.70;99.90;;;;;;5073249;28;20024;-88
2021/09/26 07:10:44;;;;;;;12.13;9.77;;;15.80;99.90;;;;;;5091464;28;20066;-88
2021/09/26 07:13:10;;;;;;;11.63;9.02;;;15.90;99.90;;;;;;5091720;28;20055;-88
2021/09/26 07:15:36;;;;;;;11.98;8.80;;;15.90;99.90;;;;;;5074292;28;20435;-88
2021/09/26 07:18:03;;;;;;;12.20;9.45;;;16.00;99.90;;;;;;5073402;28;20012;-87
2021/09/26 07:20:29;;;;;;;11.52;8.93;;;16.00;99.90;;;;;;5073714;28;20372;-88
2021/09/26 07:23:02;;;;;;;12.20;8.35;;;16.10;99.90;;;;;;5073349;28;20085;-88
2021/09/26 07:25:29;;;;;;;12.07;9.65;;;16.10;99.90;;;;;;5055733;28;20081;-88
2021/09/26 07:27:57;;;;;;;12.48;8.77;;;16.20;99.90;;;;;;5073038;28;20073;-88
2021/09/26 07:30:25;;;;;;;10.85;8.55;;;16.30;99.90;;;;;;5073574;28;20028;-88
2021/09/26 07:32:56;;;;;;;12.95;9.63;;;16.30;99.90;;;;;;5042246;28;20538;-88
2021/09/26 07:35:27;;;;;;;12.63;8.88;;;16.40;99.90;;;;;;5070418;28;20044;-88
2021/09/26 07:37:54;;;;;;;12.13;10.10;;;16.50;99.90;;;;;;5073251;28;20063;-88
2021/09/26 07:40:20;;;;;;;10.07;8.38;;;16.60;99.90;;;;;;5056343;28;20085;-88
2021/09/26 07:42:52;;;;;;;12.95;9.40;;;16.70;99.90;;;;;;5073235;28;20050;-89
2021/09/26 07:45:18;;;;;;;12.27;10.18;;;16.80;99.90;;;;;;5056988;28;20480;-88
2021/09/26 07:47:44;;;;;;;12.70;10.27;;;16.90;99.90;;;;;;5056299;28;20026;-88
2021/09/26 07:50:11;;;;;;;13.68;9.85;;;17.00;99.90;;;;;;5073245;28;20420;-88
2021/09/26 07:52:37;;;;;;;11.43;9.40;;;17.10;99.90;;;;;;5056614;28;20464;-89
2021/09/26 07:55:04;;;;;;;11.93;9.75;;;17.20;99.90;;;;;;5091498;28;20095;-88
2021/09/26 07:57:30;;;;;;;12.82;10.05;;;17.30;99.90;;;;;;5072133;28;20056;-88
2021/09/26 07:59:55;;;;;;;14.02;10.23;;;17.50;99.90;;;;;;5090319;28;20064;-88
2021/09/26 08:02:24;;;;;;;14.43;9.98;;;17.60;99.90;;;;;;5071941;28;20078;-88
2021/09/26 08:04:50;;;;;;;12.43;10.80;;;17.70;99.90;;;;;;5090491;28;20103;-88
2021/09/26 08:07:16;;;;;;;15.18;12.93;;;17.80;99.90;;;;;;5036409;28;20059;-88
2021/09/26 08:09:42;;;;;;;13.90;11.18;;;17.90;99.90;;;;;;5052731;28;20032;-88
2021/09/26 08:12:08;;;;;;;13.88;12.38;;;18.00;99.90;;;;;;5059217;28;20131;-88
2021/09/26 08:14:34;;;;;;;11.48;9.93;;;18.10;99.90;;;;;;5072975;28;20059;-88
2021/09/26 08:17:01;;;;;;;11.30;10.10;;;18.20;99.90;;;;;;5072201;28;20480;-87
2021/09/26 08:19:30;;;;;;;12.00;10.70;;;18.30;99.90;;;;;;5053937;28;20059;-88
2021/09/26 08:21:55;;;;;;;11.50;9.68;;;18.40;99.90;;;;;;5088715;28;20028;-88
2021/09/26 08:24:21;;;;;;;12.70;10.48;;;18.40;99.90;;;;;;5050946;28;20035;-88
2021/09/26 08:26:47;;;;;;;10.23;9.10;;;18.40;99.90;;;;;;5063925;28;20468;-88
2021/09/26 08:29:13;;;;;;;11.75;10.27;;;18.50;99.90;;;;;;5070930;28;20569;-88
2021/09/26 08:31:39;;;;;;;12.85;10.55;;;18.60;99.90;;;;;;5089255;28;20028;-87
2021/09/26 08:34:05;;;;;;;11.95;10.50;;;18.60;99.90;;;;;;5089895;28;20531;-87
2021/09/26 08:36:33;;;;;;;15.95;12.52;;;18.70;99.90;;;;;;5052024;28;20484;-87
2021/09/26 08:38:58;;;;;;;14.88;12.50;;;18.80;99.90;;;;;;5066858;28;20020;-87
2021/09/26 08:41:25;;;;;;;13.32;11.88;;;18.90;99.90;;;;;;5089721;28;20112;-87
2021/09/26 08:43:52;;;;;;;13.57;11.85;;;19.00;99.90;;;;;;5072694;28;20024;-87
2021/09/26 08:46:19;;;;;;;13.93;9.70;;;19.10;99.90;;;;;;5072607;28;20016;-87
2021/09/26 08:48:46;;;;;;;13.50;10.35;;;19.30;99.90;;;;;;5072634;28;20024;-87
2021/09/26 08:51:18;;;;;;;12.05;10.80;;;19.40;99.90;;;;;;5072546;28;20166;-86
2021/09/26 08:53:50;;;;;;;11.63;9.80;;;19.50;99.90;;;;;;5056618;28;20476;-87
2021/09/26 08:56:20;;;;;;;10.97;9.87;;;19.50;99.90;;;;;;5090193;28;20032;-87
2021/09/26 08:58:49;;;;;;;11.30;9.95;;;19.60;99.90;;;;;;5071768;28;20281;-87
2021/09/26 09:01:19;;;;;;;14.05;12.60;;;19.70;99.90;;;;;;5072153;28;20020;-87
2021/09/26 09:03:48;;;;;;;14.02;11.35;;;19.70;99.90;;;;;;5071788;28;20035;-87
2021/09/26 09:06:17;;;;;;;13.65;11.80;;;19.80;99.90;;;;;;5072022;28;20769;-87
2021/09/26 09:08:48;;;;;;;14.10;12.23;;;19.80;99.90;;;;;;5089711;28;20008;-87
2021/09/26 09:11:23;;;;;;;12.40;10.48;;;19.90;99.90;;;;;;5074664;28;20032;-87
2021/09/26 09:13:58;;;;;;;14.75;11.57;;;20.00;99.90;;;;;;5052403;28;20037;-87
2021/09/26 09:16:32;;;;;;;14.70;12.70;;;20.20;99.90;;;;;;5050370;28;20119;-86
2021/09/26 09:19:04;;;;;;;;;;;20.30;99.90;;;;;;5052445;28;20032;-87
2021/09/26 09:21:37;;;;;;;11.60;10.40;;;20.40;99.90;;;;;;5047286;28;19908;-87
2021/09/26 09:24:12;;;;;;;11.80;10.23;;;20.60;99.90;;;;;;5049584;28;20515;-87
2021/09/26 09:26:39;;;;;;;12.55;11.25;;;21.20;99.90;;;;;;5052432;28;20120;-87
2021/09/26 09:29:06;;;;;;;12.38;10.50;;;22.00;99.90;;;;;;5052235;28;20025;-88
2021/09/26 09:31:34;;;;;;;12.60;11.02;;;22.80;99.90;;;;;;5052773;28;20029;-90
2021/09/26 09:34:04;;;;;;;14.02;12.52;;;23.60;99.90;;;;;;5049843;28;20048;-87
2021/09/26 09:36:31;;;;;;;12.25;10.60;;;24.20;99.90;;;;;;5050589;28;20017;-86
2021/09/26 09:39:13;;;;;;;13.40;11.57;;;24.60;99.90;;;;;;5049882;28;20029;-85
2021/09/26 09:41:49;;;;;;;10.20;8.95;;;25.30;99.90;;;;;;5051495;28;20068;-86
2021/09/26 09:44:53;;;;;;;12.05;10.77;;;26.00;99.90;;;;;;5054133;28;20021;-87
2021/09/26 09:47:26;;;;;;;11.27;10.13;;;26.50;99.90;;;;;;5038143;28;20074;-86
2021/09/26 09:50:04;;;;;;;10.18;9.13;;;26.70;99.90;;;;;;5051917;28;20346;-85
2021/09/26 09:52:46;;;;;;;10.50;9.40;;;26.70;99.90;;;;;;5051994;28;20423;-86
2021/09/26 09:55:18;;;;;;;11.70;10.40;;;26.90;99.90;;;;;;5055031;28;20050;-87
2021/09/26 09:57:44;;;;;;;13.05;11.65;;;26.70;99.90;;;;;;5035541;28;20112;-85
2021/09/26 10:00:17;;;;;;;10.77;9.55;;;26.60;99.90;;;;;;5051031;28;20166;-85
2021/09/26 10:02:43;;;;;;;11.18;9.65;;;26.20;99.90;;;;;;5048711;28;20056;-84
2021/09/26 10:05:28;;;;;;;12.30;10.40;;;26.00;99.90;;;;;;5047053;28;20480;-86
2021/09/26 10:07:59;;;;;;;10.48;9.45;;;25.40;99.90;;;;;;5050838;28;20063;-86
2021/09/26 10:10:32;;;;;;;10.60;9.07;;;25.50;99.90;;;;;;5033737;28;20101;-86
2021/09/26 10:13:16;;;;;;;11.32;9.07;;;25.90;99.90;;;;;;5077685;28;20052;-85
2021/09/26 10:15:43;;;;;;;12.18;10.60;;;25.80;99.90;;;;;;5057666;28;20073;-85
2021/09/26 10:18:10;;;;;;;13.45;9.95;;;25.90;99.90;;;;;;5073990;28;20026;-85
2021/09/26 10:20:37;;;;;;;8.57;7.43;;;26.00;99.90;;;;;;5073976;28;20056;-85
2021/09/26 10:23:03;;;;;;;8.82;7.90;;;26.60;99.90;;;;;;5073445;28;20028;-86
2021/09/26 10:25:29;;;;;;;10.98;9.65;;;27.50;99.90;;;;;;5073648;28;20369;-86
2021/09/26 10:27:57;;;;;;;9.98;8.98;;;27.50;99.90;;;;;;5091405;28;20095;-85
2021/09/26 10:30:26;;;;;;;9.88;8.88;;;27.00;99.90;;;;;;5073551;28;20472;-85
2021/09/26 10:32:56;;;;;;;10.50;9.30;;;26.30;99.90;;;;;;5074219;28;20036;-85
2021/09/26 10:35:22;;;;;;;10.45;9.35;;;25.30;99.90;;;;;;5093978;28;20046;-86
2021/09/26 10:37:49;;;;;;;10.18;8.35;;;24.70;99.90;;;;;;5076402;28;20516;-86
2021/09/26 10:40:18;;;;;;;10.48;8.90;;;24.50;99.90;;;;;;5055831;28;20036;-85
2021/09/26 10:42:48;;;;;;;10.48;8.98;;;24.30;99.90;;;;;;5086640;28;20028;-85
2021/09/26 10:45:27;;;;;;;11.75;10.40;;;24.30;99.90;;;;;;5076368;28;20019;-86
2021/09/26 10:47:55;;;;;;;8.55;7.60;;;24.60;99.90;;;;;;5061366;28;20418;-86
2021/09/26 10:50:35;;;;;;;11.38;9.07;;;25.40;99.90;;;;;;5074372;28;20490;-85
2021/09/26 10:53:16;;;;;;;10.48;9.38;;;26.10;99.90;;;;;;5058188;28;20051;-85
2021/09/26 10:55:44;;;;;;;11.43;9.23;;;27.10;99.90;;;;;;5041756;28;20028;-85
2021/09/26 10:58:18;;;;;;;10.30;9.07;;;27.80;99.90;;;;;;5092441;28;20384;-85
2021/09/26 11:01:02;;;;;;;8.48;7.57;;;28.10;99.90;;;;;;5075660;28;20071;-84
2021/09/26 11:03:31;;;;;;;9.82;8.02;;;28.00;99.90;;;;;;5058250;28;20036;-85
2021/09/26 11:06:26;;;;;;;8.60;7.72;;;28.20;99.90;;;;;;5093937;28;20459;-85
2021/09/26 11:08:53;;;;;;;9.68;8.68;;;27.60;99.90;;;;;;5093660;28;20051;-85
2021/09/26 11:11:39;;;;;;;9.18;7.97;;;27.60;99.90;;;;;;5075584;28;20493;-85
2021/09/26 11:14:10;;;;;;;8.75;7.78;;;28.00;99.90;;;;;;5075660;28;20055;-85
2021/09/26 11:17:01;;;;;;;9.43;7.50;;;28.80;99.90;;;;;;5074864;28;20412;-85
2021/09/26 11:19:28;;;;;;;9.00;7.63;;;29.50;99.90;;;;;;5075473;28;20123;-84
2021/09/26 11:21:59;;;;;;;8.80;7.90;;;29.20;99.90;;;;;;5075253;28;20036;-85
2021/09/26 11:24:34;;;;;;;8.60;7.78;;;29.40;99.90;;;;;;5075681;28;20032;-85
2021/09/26 11:27:07;;;;;;;8.75;7.95;;;29.80;99.90;;;;;;5093894;28;20371;-85
2021/09/26 11:29:42;;;;;;;9.43;7.72;;;29.90;99.90;;;;;;5075434;28;20138;-85
2021/09/26 11:32:29;;;;;;;10.48;7.53;;;30.00;99.90;;;;;;5074982;28;20016;-85
2021/09/26 11:35:03;;;;;;;9.10;8.20;;;30.20;99.90;;;;;;5093247;28;20052;-86
2021/09/26 11:37:41;;;;;;;7.38;6.65;;;30.20;99.90;;;;;;5075004;28;20028;-86
2021/09/26 11:40:20;;;;;;;7.85;7.10;;;29.90;99.90;;;;;;5075114;28;20472;-85
2021/09/26 11:42:51;;;;;;;8.95;8.05;;;29.30;99.90;;;;;;5075359;28;20495;-85
2021/09/26 11:45:32;;;;;;;7.88;7.07;;;28.70;99.90;;;;;;5076020;28;20028;-86
2021/09/26 11:48:08;;;;;;;7.80;7.00;;;28.90;99.90;;;;;;5093123;28;20487;-85
2021/09/26 11:50:37;;;;;;;8.32;7.53;;;28.70;99.90;;;;;;5075033;28;20028;-85
2021/09/26 11:53:05;;;;;;;11.05;9.75;;;28.20;99.90;;;;;;5093350;28;20048;-85
2021/09/26 11:55:37;;;;;;;9.63;8.63;;;27.80;99.90;;;;;;5074705;28;20040;-86
2021/09/26 11:58:07;;;;;;;9.65;8.35;;;27.60;99.90;;;;;;5075059;28;20368;-85
2021/09/26 12:00:36;;;;;;;9.75;8.15;;;27.60;99.90;;;;;;5075513;28;20039;-85
2021/09/26 12:03:29;;;;;;;8.48;7.38;;;27.70;99.90;;;;;;5074850;28;20464;-85
2021/09/26 12:05:57;;;;;;;8.82;7.72;;;27.90;99.90;;;;;;5078520;28;20056;-86
2021/09/26 12:08:24;;;;;;;8.65;7.75;;;28.10;99.90;;;;;;5092945;28;20027;-85
2021/09/26 12:11:01;;;;;;;7.50;6.80;;;28.20;99.90;;;;;;5074661;28;20039;-86
2021/09/26 12:13:26;;;;;;;6.75;6.07;;;29.10;99.90;;;;;;5071505;28;20044;-87
2021/09/26 12:15:55;;;;;;;7.45;6.65;;;30.10;99.30;;;;;;5051216;28;20025;-85
2021/09/26 12:18:24;;;;;;;7.18;6.47;;;30.60;98.30;;;;;;5060487;28;20119;-86
2021/09/26 12:21:03;;;;;;;6.95;6.25;;;31.10;97.90;;;;;;5071548;28;20058;-86
2021/09/26 12:23:46;;;;;;;7.35;6.22;;;31.50;97.20;;;;;;5071555;28;20020;-86
2021/09/26 12:26:18;;;;;;;6.28;5.30;;;31.80;97.00;;;;;;5071568;28;20040;-86
2021/09/26 12:28:44;;;;;;;6.65;5.93;;;31.70;97.10;;;;;;5072694;28;20020;-86
2021/09/26 12:31:10;;;;;;;8.60;6.32;;;31.50;96.60;;;;;;5072700;28;20033;-85
2021/09/26 12:33:45;;;;;;;8.35;6.82;;;31.20;96.30;;;;;;5071360;28;20176;-85
2021/09/26 12:36:15;;;;;;;6.72;5.82;;;30.90;96.40;;;;;;5071418;28;20017;-84
2021/09/26 12:38:51;;;;;;;7.45;6.65;;;31.30;96.30;;;;;;5072650;28;20020;-86
2021/09/26 12:41:20;;;;;;;9.05;8.20;;;31.10;95.80;;;;;;5071352;28;20115;-86
2021/09/26 12:43:52;;;;;;;8.73;7.45;;;31.30;95.70;;;;;;5074194;28;20024;-86
2021/09/26 12:46:24;;;;;;;8.80;8.00;;;31.60;95.10;;;;;;5075181;28;20028;-86
2021/09/26 12:48:50;;;;;;;8.43;7.20;;;31.40;94.20;;;;;;5075110;28;20054;-86